BAW2065 EGKK-FIMP
Flight info
| Callsign | BAW2065 |
|---|---|
| Flight time | N/A |
| Altitude | 23000 |
| Route | BOGNA L612 XAMAB/N0479F350 UL612 VEULE DCT KOTAP DCT KETEX DCT KOTIS DCT KUKOR DCT UTUVA DCT TITVA DCT NOQAS DCT OTROT DCT RETNO DCT KOLON DCT RAPUR DCT RATAP DCT BTA DCT DOKAR DCT SUNEV DCT DIRED DCT LEVDI/N0480F370 DCT INKOP DCT ARLOS DCT SALUN N705 BOPIX N710 TAKRI P751 LXR M999 JDW/N0482F390 G650 RASKA/N0485F380 G650 ASM/N0482F390 UR780 SETIT DCT XADOX DCT DWA N304 AVUSI UN304 APKAK/N0482F400 UN304 DENLI/N0483F410 UN304 MAEVA UL433 APKOT DCT TIBAG TIBAG2F |
| Aircraft | B772/H-SDE2E3FGHIJ5LORVWXY/LB1D1 |
Departure
| Time | 2026-04-18 07:46 |
|---|---|
| Airport | London Gatwick Airport (EGKK) |
Arrival
| Time | N/A |
|---|---|
| Airport | Sir Seewoosagur Ramgoolam International Airport (FIMP) |
| Time | Latitude | Longitude | Altitude | Speed | Heading |
|---|---|---|---|---|---|
| 2026-04-18 07:30 | 51.15563 | -0.17104 | 220 ft | 0 kts | 168° |
| 2026-04-18 07:37 | 51.15577 | -0.17108 | 220 ft | 4 kts | 172° |
| 2026-04-18 07:37 | 51.15604 | -0.17110 | 217 ft | 4 kts | 187° |
| 2026-04-18 07:37 | 51.15628 | -0.17099 | 220 ft | 4 kts | 219° |
| 2026-04-18 07:37 | 51.15639 | -0.17076 | 217 ft | 0 kts | 257° |
| 2026-04-18 07:40 | 51.15632 | -0.17128 | 216 ft | 16 kts | 257° |
| 2026-04-18 07:40 | 51.15583 | -0.17310 | 217 ft | 15 kts | 206° |
| 2026-04-18 07:40 | 51.15437 | -0.17279 | 214 ft | 21 kts | 166° |
| 2026-04-18 07:41 | 51.15299 | -0.17225 | 217 ft | 17 kts | 162° |
| 2026-04-18 07:41 | 51.15207 | -0.17112 | 218 ft | 17 kts | 109° |
| 2026-04-18 07:41 | 51.15216 | -0.16955 | 221 ft | 0 kts | 78° |
| 2026-04-18 07:43 | 51.15218 | -0.16943 | 219 ft | 8 kts | 78° |
| 2026-04-18 07:43 | 51.15191 | -0.16799 | 221 ft | 14 kts | 160° |
| 2026-04-18 07:43 | 51.15118 | -0.16849 | 217 ft | 13 kts | 249° |
| 2026-04-18 07:43 | 51.15114 | -0.16869 | 219 ft | 0 kts | 255° |
| 2026-04-18 07:45 | 51.15112 | -0.16880 | 220 ft | 7 kts | 255° |
| 2026-04-18 07:45 | 51.15067 | -0.17197 | 212 ft | 66 kts | 257° |
| 2026-04-18 07:46 | 51.14908 | -0.18347 | 217 ft | 144 kts | 257° |
| 2026-04-18 07:46 | 51.14663 | -0.20186 | 561 ft | 183 kts | 255° |
| 2026-04-18 07:46 | 51.14394 | -0.22193 | 1598 ft | 184 kts | 256° |
| 2026-04-18 07:46 | 51.14141 | -0.24181 | 2635 ft | 185 kts | 256° |
| 2026-04-18 07:47 | 51.13853 | -0.26263 | 2966 ft | 199 kts | 255° |
| 2026-04-18 07:47 | 51.13536 | -0.28453 | 3313 ft | 210 kts | 255° |
| 2026-04-18 07:47 | 51.13210 | -0.30738 | 3889 ft | 211 kts | 255° |
| 2026-04-18 07:47 | 51.12886 | -0.33010 | 4563 ft | 209 kts | 256° |
| 2026-04-18 07:48 | 51.12563 | -0.35285 | 4940 ft | 213 kts | 256° |
| 2026-04-18 07:48 | 51.12225 | -0.37670 | 5040 ft | 229 kts | 256° |
| 2026-04-18 07:48 | 51.11602 | -0.40059 | 5246 ft | 241 kts | 230° |
| 2026-04-18 07:48 | 51.10242 | -0.41615 | 5721 ft | 253 kts | 202° |
| 2026-04-18 07:49 | 51.08474 | -0.41999 | 6293 ft | 261 kts | 180° |
| 2026-04-18 07:49 | 51.06639 | -0.41753 | 6843 ft | 266 kts | 178° |
| 2026-04-18 07:49 | 51.04800 | -0.41487 | 7549 ft | 266 kts | 179° |
| 2026-04-18 07:49 | 51.02950 | -0.41234 | 8149 ft | 269 kts | 179° |
| 2026-04-18 07:50 | 51.01065 | -0.40984 | 8783 ft | 272 kts | 179° |
| 2026-04-18 07:50 | 50.99179 | -0.40735 | 9462 ft | 273 kts | 179° |
| 2026-04-18 07:50 | 50.97272 | -0.40489 | 10104 ft | 275 kts | 179° |
| 2026-04-18 07:50 | 50.95339 | -0.40243 | 10529 ft | 285 kts | 179° |
| 2026-04-18 07:51 | 50.93314 | -0.39991 | 10682 ft | 306 kts | 179° |
| 2026-04-18 07:51 | 50.91115 | -0.39716 | 10852 ft | 327 kts | 179° |
| 2026-04-18 07:51 | 50.88768 | -0.39418 | 11029 ft | 348 kts | 179° |
| 2026-04-18 07:51 | 50.86303 | -0.39105 | 11485 ft | 360 kts | 179° |
| 2026-04-18 07:52 | 50.83797 | -0.38662 | 12026 ft | 366 kts | 171° |
| 2026-04-18 07:52 | 50.81453 | -0.37035 | 12543 ft | 380 kts | 149° |
| 2026-04-18 07:52 | 50.79282 | -0.34590 | 13044 ft | 387 kts | 149° |
| 2026-04-18 07:52 | 50.77025 | -0.32208 | 13787 ft | 391 kts | 151° |
| 2026-04-18 07:53 | 50.74735 | -0.29862 | 14600 ft | 393 kts | 152° |
| 2026-04-18 07:53 | 50.72435 | -0.27504 | 15374 ft | 395 kts | 152° |
| 2026-04-18 07:53 | 50.70120 | -0.25126 | 16096 ft | 399 kts | 152° |
| 2026-04-18 07:53 | 50.67786 | -0.22701 | 16811 ft | 403 kts | 151° |
| 2026-04-18 07:54 | 50.65434 | -0.20235 | 17523 ft | 408 kts | 151° |
| 2026-04-18 07:54 | 50.63874 | -0.18597 | 17988 ft | 411 kts | 151° |
| 2026-04-18 07:54 | 50.60702 | -0.15269 | 18890 ft | 416 kts | 151° |
| 2026-04-18 07:54 | 50.58280 | -0.12732 | 19529 ft | 419 kts | 152° |
| 2026-04-18 07:55 | 50.55838 | -0.10179 | 20177 ft | 423 kts | 152° |
| 2026-04-18 07:55 | 50.54203 | -0.08474 | 20590 ft | 425 kts | 152° |
| 2026-04-18 07:55 | 50.51728 | -0.05895 | 21231 ft | 429 kts | 152° |
| 2026-04-18 07:55 | 50.49234 | -0.03299 | 21875 ft | 432 kts | 152° |
| 2026-04-18 07:56 | 50.46717 | -0.00684 | 22448 ft | 436 kts | 152° |
| 2026-04-18 07:56 | 50.44169 | 0.01958 | 22961 ft | 441 kts | 152° |
| 2026-04-18 07:56 | 50.41588 | 0.04642 | 23440 ft | 446 kts | 152° |
| 2026-04-18 07:56 | 50.38987 | 0.07345 | 23926 ft | 450 kts | 152° |
| 2026-04-18 07:57 | 50.36371 | 0.10061 | 24390 ft | 453 kts | 152° |
| 2026-04-18 07:57 | 50.33735 | 0.12797 | 24857 ft | 455 kts | 152° |
| 2026-04-18 07:57 | 50.31091 | 0.15539 | 25302 ft | 457 kts | 152° |
| 2026-04-18 07:57 | 50.28433 | 0.18294 | 25724 ft | 460 kts | 152° |
| 2026-04-18 07:58 | 50.23060 | 0.23854 | 26505 ft | 465 kts | 152° |
| 2026-04-18 07:58 | 50.20386 | 0.26613 | 26884 ft | 468 kts | 152° |
| 2026-04-18 07:58 | 50.17656 | 0.29421 | 27232 ft | 471 kts | 152° |
| 2026-04-18 07:59 | 50.14906 | 0.32240 | 27561 ft | 474 kts | 152° |
| 2026-04-18 07:59 | 50.12147 | 0.35066 | 27913 ft | 476 kts | 152° |
| 2026-04-18 07:59 | 50.09366 | 0.37912 | 28268 ft | 478 kts | 152° |
| 2026-04-18 07:59 | 50.06585 | 0.40757 | 28590 ft | 480 kts | 152° |
| 2026-04-18 08:00 | 50.03782 | 0.43619 | 28890 ft | 482 kts | 152° |
| 2026-04-18 08:00 | 50.00970 | 0.46487 | 29138 ft | 484 kts | 152° |
| 2026-04-18 08:00 | 49.98144 | 0.49365 | 29395 ft | 487 kts | 152° |
| 2026-04-18 08:00 | 49.95338 | 0.52219 | 29590 ft | 489 kts | 151° |
| 2026-04-18 08:01 | 49.92484 | 0.55120 | 29799 ft | 491 kts | 151° |
| 2026-04-18 08:01 | 49.89618 | 0.58030 | 30041 ft | 493 kts | 151° |
| 2026-04-18 08:01 | 49.86745 | 0.60941 | 30346 ft | 492 kts | 151° |
| 2026-04-18 08:01 | 49.83893 | 0.63862 | 30673 ft | 491 kts | 150° |
| 2026-04-18 08:02 | 49.81095 | 0.66889 | 30972 ft | 491 kts | 149° |
| 2026-04-18 08:02 | 49.78325 | 0.69983 | 31242 ft | 490 kts | 148° |
| 2026-04-18 08:02 | 49.75568 | 0.73090 | 31505 ft | 490 kts | 148° |
| 2026-04-18 08:02 | 49.72807 | 0.76194 | 31735 ft | 490 kts | 148° |
| 2026-04-18 08:03 | 49.70042 | 0.79282 | 31980 ft | 490 kts | 148° |
| 2026-04-18 08:03 | 49.67278 | 0.82348 | 32254 ft | 489 kts | 148° |
| 2026-04-18 08:03 | 49.64518 | 0.85392 | 32539 ft | 488 kts | 149° |
| 2026-04-18 08:03 | 49.61749 | 0.88433 | 32790 ft | 487 kts | 149° |
| 2026-04-18 08:04 | 49.58992 | 0.91453 | 33040 ft | 486 kts | 149° |
| 2026-04-18 08:04 | 49.56235 | 0.94468 | 33298 ft | 485 kts | 149° |
| 2026-04-18 08:04 | 49.53517 | 0.97435 | 33558 ft | 485 kts | 149° |
| 2026-04-18 08:04 | 49.50766 | 1.00436 | 33789 ft | 485 kts | 148° |
| 2026-04-18 08:05 | 49.48012 | 1.03437 | 34018 ft | 485 kts | 148° |
| 2026-04-18 08:05 | 49.45262 | 1.06429 | 34256 ft | 484 kts | 148° |
| 2026-04-18 08:05 | 49.42516 | 1.09414 | 34470 ft | 483 kts | 149° |
| 2026-04-18 08:05 | 49.39762 | 1.12403 | 34686 ft | 483 kts | 149° |
| 2026-04-18 08:06 | 49.37014 | 1.15382 | 34874 ft | 483 kts | 149° |
| 2026-04-18 08:06 | 49.34270 | 1.18352 | 35071 ft | 483 kts | 149° |
| 2026-04-18 08:06 | 49.31518 | 1.21325 | 35122 ft | 485 kts | 149° |
| 2026-04-18 08:07 | 49.26002 | 1.27275 | 35178 ft | 484 kts | 149° |
| 2026-04-18 08:07 | 49.20541 | 1.33150 | 35169 ft | 482 kts | 149° |
| 2026-04-18 08:08 | 49.15062 | 1.39028 | 35183 ft | 480 kts | 149° |
| 2026-04-18 08:08 | 49.09520 | 1.44956 | 35185 ft | 480 kts | 149° |
| 2026-04-18 08:09 | 49.04110 | 1.50725 | 35177 ft | 480 kts | 149° |
| 2026-04-18 08:09 | 48.98621 | 1.56564 | 35186 ft | 481 kts | 149° |
| 2026-04-18 08:10 | 48.93123 | 1.62396 | 35186 ft | 482 kts | 149° |
| 2026-04-18 08:10 | 48.87601 | 1.68238 | 35189 ft | 483 kts | 149° |
| 2026-04-18 08:11 | 48.82112 | 1.74030 | 35193 ft | 484 kts | 149° |
| 2026-04-18 08:11 | 48.76582 | 1.79850 | 35195 ft | 484 kts | 149° |
| 2026-04-18 08:12 | 48.71036 | 1.85671 | 35191 ft | 484 kts | 149° |
| 2026-04-18 08:12 | 48.65489 | 1.91476 | 35206 ft | 484 kts | 149° |
| 2026-04-18 08:13 | 48.59939 | 1.97269 | 35202 ft | 484 kts | 149° |
| 2026-04-18 08:13 | 48.54398 | 2.03036 | 35202 ft | 484 kts | 149° |
| 2026-04-18 08:14 | 48.48844 | 2.08802 | 35186 ft | 485 kts | 149° |
| 2026-04-18 08:14 | 48.43318 | 2.14524 | 35192 ft | 485 kts | 149° |
| 2026-04-18 08:15 | 48.37752 | 2.20274 | 35194 ft | 485 kts | 149° |
| 2026-04-18 08:15 | 48.32170 | 2.26009 | 35199 ft | 485 kts | 150° |
| 2026-04-18 08:16 | 48.26218 | 2.30593 | 35199 ft | 479 kts | 162° |
| 2026-04-18 08:16 | 48.19906 | 2.33421 | 35190 ft | 475 kts | 170° |
| 2026-04-18 08:17 | 48.13491 | 2.35912 | 35203 ft | 477 kts | 168° |
| 2026-04-18 08:17 | 48.07167 | 2.39010 | 35210 ft | 479 kts | 165° |
| 2026-04-18 08:18 | 48.00833 | 2.42196 | 35207 ft | 480 kts | 165° |
| 2026-04-18 08:18 | 47.94489 | 2.45358 | 35201 ft | 481 kts | 165° |
| 2026-04-18 08:19 | 47.88116 | 2.48515 | 35209 ft | 482 kts | 165° |
| 2026-04-18 08:19 | 47.81783 | 2.51641 | 35204 ft | 483 kts | 165° |
| 2026-04-18 08:20 | 47.75405 | 2.54782 | 35180 ft | 483 kts | 165° |
| 2026-04-18 08:20 | 47.69003 | 2.57928 | 35199 ft | 485 kts | 165° |
| 2026-04-18 08:21 | 47.62587 | 2.61072 | 35201 ft | 486 kts | 165° |
| 2026-04-18 08:21 | 47.56155 | 2.64217 | 35197 ft | 486 kts | 165° |
| 2026-04-18 08:22 | 47.49713 | 2.67357 | 35200 ft | 487 kts | 165° |
| 2026-04-18 08:22 | 47.43310 | 2.70472 | 35204 ft | 488 kts | 165° |
| 2026-04-18 08:23 | 47.36854 | 2.73604 | 35204 ft | 488 kts | 165° |
| 2026-04-18 08:23 | 47.30406 | 2.76725 | 35196 ft | 488 kts | 165° |
| 2026-04-18 08:24 | 47.23949 | 2.79841 | 35205 ft | 488 kts | 165° |
| 2026-04-18 08:24 | 47.17479 | 2.82948 | 35206 ft | 488 kts | 165° |
| 2026-04-18 08:25 | 47.11014 | 2.86039 | 35193 ft | 489 kts | 165° |
| 2026-04-18 08:25 | 47.04536 | 2.89129 | 35185 ft | 489 kts | 165° |
| 2026-04-18 08:26 | 46.98093 | 2.92197 | 35189 ft | 490 kts | 165° |
| 2026-04-18 08:26 | 46.91597 | 2.95284 | 35176 ft | 491 kts | 165° |
| 2026-04-18 08:27 | 46.85090 | 2.98367 | 35193 ft | 492 kts | 165° |
| 2026-04-18 08:27 | 46.78570 | 3.01448 | 35192 ft | 492 kts | 165° |
| 2026-04-18 08:28 | 46.72042 | 3.04525 | 35196 ft | 493 kts | 165° |
| 2026-04-18 08:28 | 46.65508 | 3.07599 | 35195 ft | 493 kts | 165° |
| 2026-04-18 08:29 | 46.59023 | 3.10642 | 35198 ft | 492 kts | 165° |
| 2026-04-18 08:29 | 46.52501 | 3.13713 | 35181 ft | 492 kts | 164° |
| 2026-04-18 08:30 | 46.46043 | 3.17151 | 35200 ft | 493 kts | 162° |
| 2026-04-18 08:30 | 46.39632 | 3.20701 | 35192 ft | 493 kts | 162° |
| 2026-04-18 08:31 | 46.33240 | 3.24176 | 35186 ft | 494 kts | 162° |
| 2026-04-18 08:31 | 46.26779 | 3.27635 | 35187 ft | 496 kts | 162° |
| 2026-04-18 08:32 | 46.20306 | 3.31085 | 35188 ft | 497 kts | 162° |
| 2026-04-18 08:32 | 46.13801 | 3.34547 | 35186 ft | 498 kts | 162° |
| 2026-04-18 08:33 | 46.07293 | 3.38004 | 35181 ft | 499 kts | 162° |
| 2026-04-18 08:33 | 46.00770 | 3.41462 | 35185 ft | 499 kts | 162° |
| 2026-04-18 08:34 | 45.94284 | 3.44891 | 35194 ft | 499 kts | 162° |
| 2026-04-18 08:34 | 45.87783 | 3.48416 | 35194 ft | 500 kts | 158° |
| 2026-04-18 08:35 | 45.81690 | 3.53264 | 35200 ft | 503 kts | 148° |
| 2026-04-18 08:35 | 45.75872 | 3.58882 | 35203 ft | 503 kts | 148° |
| 2026-04-18 08:36 | 45.70068 | 3.64400 | 35197 ft | 503 kts | 149° |
| 2026-04-18 08:36 | 45.64220 | 3.69891 | 35206 ft | 503 kts | 149° |
| 2026-04-18 08:37 | 45.58366 | 3.75364 | 35224 ft | 502 kts | 149° |
| 2026-04-18 08:37 | 45.52505 | 3.80835 | 35202 ft | 503 kts | 149° |
| 2026-04-18 08:38 | 45.46687 | 3.86258 | 35211 ft | 503 kts | 149° |
| 2026-04-18 08:38 | 45.40833 | 3.91705 | 35206 ft | 503 kts | 147° |
| 2026-04-18 08:39 | 45.35484 | 3.98144 | 35213 ft | 505 kts | 135° |
| 2026-04-18 08:39 | 45.31070 | 4.05920 | 35193 ft | 506 kts | 126° |
| 2026-04-18 08:40 | 45.27008 | 4.14091 | 35201 ft | 507 kts | 126° |
| 2026-04-18 08:40 | 45.22872 | 4.22211 | 35202 ft | 507 kts | 126° |
| 2026-04-18 08:41 | 45.19415 | 4.28946 | 35205 ft | 507 kts | 126° |
| 2026-04-18 08:41 | 45.14596 | 4.38370 | 35201 ft | 508 kts | 126° |
| 2026-04-18 08:42 | 45.11126 | 4.45086 | 35198 ft | 508 kts | 128° |
| 2026-04-18 08:42 | 45.06538 | 4.52678 | 35188 ft | 507 kts | 131° |
| 2026-04-18 08:43 | 45.01878 | 4.60185 | 35187 ft | 507 kts | 131° |
| 2026-04-18 08:43 | 44.97226 | 4.67715 | 35174 ft | 508 kts | 131° |
| 2026-04-18 08:44 | 44.92606 | 4.75213 | 35135 ft | 509 kts | 131° |
| 2026-04-18 08:44 | 44.87954 | 4.82750 | 35124 ft | 508 kts | 131° |
| 2026-04-18 08:45 | 44.83300 | 4.90268 | 35130 ft | 508 kts | 131° |
| 2026-04-18 08:45 | 44.78637 | 4.97778 | 35139 ft | 508 kts | 131° |
| 2026-04-18 08:46 | 44.73973 | 5.05270 | 35141 ft | 509 kts | 131° |
| 2026-04-18 08:46 | 44.69310 | 5.12739 | 35148 ft | 510 kts | 131° |
| 2026-04-18 08:47 | 44.64625 | 5.20225 | 35164 ft | 510 kts | 131° |
| 2026-04-18 08:47 | 44.59930 | 5.27706 | 35157 ft | 510 kts | 131° |
| 2026-04-18 08:48 | 44.55235 | 5.35168 | 35164 ft | 510 kts | 131° |
| 2026-04-18 08:48 | 44.50565 | 5.42571 | 35142 ft | 510 kts | 131° |
| 2026-04-18 08:49 | 44.45860 | 5.50012 | 35159 ft | 510 kts | 131° |
| 2026-04-18 08:49 | 44.41146 | 5.57447 | 35153 ft | 510 kts | 131° |
| 2026-04-18 08:50 | 44.36597 | 5.65055 | 35144 ft | 510 kts | 124° |
| 2026-04-18 08:50 | 44.32642 | 5.73286 | 35160 ft | 510 kts | 123° |
| 2026-04-18 08:51 | 44.28692 | 5.81529 | 35125 ft | 510 kts | 123° |
| 2026-04-18 08:51 | 44.24737 | 5.89676 | 35131 ft | 510 kts | 123° |
| 2026-04-18 08:52 | 44.20729 | 5.97866 | 35135 ft | 510 kts | 123° |
| 2026-04-18 08:52 | 44.16717 | 6.06038 | 35126 ft | 511 kts | 123° |
| 2026-04-18 08:53 | 44.12691 | 6.14222 | 35125 ft | 511 kts | 124° |
| 2026-04-18 08:53 | 44.08688 | 6.22337 | 35123 ft | 511 kts | 124° |
| 2026-04-18 08:54 | 44.04656 | 6.30489 | 35123 ft | 511 kts | 124° |
| 2026-04-18 08:54 | 44.00612 | 6.38641 | 35120 ft | 511 kts | 124° |
| 2026-04-18 08:55 | 43.96567 | 6.46772 | 35143 ft | 511 kts | 124° |
| 2026-04-18 08:55 | 43.92524 | 6.54881 | 35140 ft | 509 kts | 124° |
| 2026-04-18 08:56 | 43.88515 | 6.62896 | 35144 ft | 508 kts | 124° |
| 2026-04-18 08:56 | 43.84486 | 6.70928 | 35139 ft | 507 kts | 124° |
| 2026-04-18 08:57 | 43.78445 | 6.82935 | 35124 ft | 506 kts | 124° |
| 2026-04-18 08:57 | 43.74416 | 6.90918 | 35116 ft | 506 kts | 124° |
| 2026-04-18 08:58 | 43.70416 | 6.98909 | 35094 ft | 505 kts | 122° |
| 2026-04-18 08:58 | 43.66602 | 7.07058 | 35092 ft | 505 kts | 121° |
| 2026-04-18 08:59 | 43.62824 | 7.15242 | 35109 ft | 505 kts | 122° |
| 2026-04-18 08:59 | 43.59012 | 7.23403 | 35107 ft | 505 kts | 122° |
| 2026-04-18 09:00 | 43.55199 | 7.31485 | 35108 ft | 505 kts | 122° |
| 2026-04-18 09:00 | 43.51353 | 7.39602 | 35107 ft | 506 kts | 122° |
| 2026-04-18 09:01 | 43.47502 | 7.47710 | 35109 ft | 506 kts | 122° |
| 2026-04-18 09:01 | 43.43645 | 7.55813 | 35107 ft | 506 kts | 122° |
| 2026-04-18 09:02 | 43.39786 | 7.63900 | 35115 ft | 505 kts | 122° |